.
WxDataArchive / Data Records for 2014-04-14
2014-04-13 April 2014 2014-04-15

Data Records for Monday, 14 April 2014

Time	Temp	Chill	HIndex	Humid	Dewpt	 Wind 	HiWind	WindDir	Rain 	Barom
-----	----	-----	------	-----	-----	------	------	-------	-----	-----
00:00	67.9	67.9	67.9	59	53.0	1	4	90	0.00	29.581 
00:05	67.9	67.9	67.9	59	53.0	1	4	90	0.00	29.581 
00:10	68.1	68.1	68.1	59	53.2	1	5	112	0.00	29.581 
00:15	68.3	68.3	68.3	59	53.4	1	3	112	0.00	29.580 
00:20	68.3	68.3	68.3	59	53.4	1	4	112	0.00	29.580 
00:25	68.3	68.3	68.3	58	52.9	1	3	112	0.00	29.580 
00:30	68.4	68.4	68.4	58	53.0	1	4	68	0.00	29.576 
00:35	68.6	68.6	68.6	57	52.7	1	5	90	0.00	29.576 
00:40	68.8	68.8	68.8	56	52.5	2	7	68	0.00	29.576 
00:45	69.1	69.1	69.1	55	52.2	2	9	45	0.00	29.572 
00:50	69.1	69.1	69.1	55	52.2	2	7	90	0.00	29.572 
00:55	69.3	69.3	69.3	54	51.9	2	7	90	0.00	29.572 
01:00	69.4	69.4	69.4	53	51.5	2	6	45	0.00	29.564 
01:05	69.4	69.4	69.4	53	51.5	2	6	68	0.00	29.564 
01:10	69.4	69.4	69.4	52	51.0	1	5	90	0.00	29.564 
01:15	69.6	69.6	69.6	51	50.7	2	9	0	0.00	29.558 
01:20	69.6	69.6	69.6	50	50.1	2	6	270	0.00	29.558 
01:25	69.8	69.8	69.8	50	50.3	2	10	112	0.00	29.558 
01:30	69.9	69.9	69.9	49	49.9	2	7	248	0.00	29.547 
01:35	70.1	70.1	70.1	49	50.0	1	5	45	0.00	29.547 
01:40	70.1	70.1	70.1	49	50.0	2	10	22	0.00	29.547 
01:45	70.1	70.1	70.1	48	49.5	2	9	248	0.00	29.547 
01:50	70.3	70.3	70.3	48	49.7	2	9	68	0.00	29.547 
01:55	70.3	70.3	70.3	48	49.7	2	12	90	0.00	29.547 
02:00	70.3	70.3	70.3	48	49.7	3	9	68	0.00	29.541 
02:05	70.1	70.1	70.1	48	49.5	2	7	112	0.00	29.541 
02:10	69.9	69.9	69.9	48	49.3	2	4	248	0.00	29.541 
02:15	69.9	69.9	69.9	48	49.3	2	6	90	0.00	29.530 
02:20	69.8	69.8	69.8	48	49.2	2	5	22	0.00	29.530 
02:25	69.6	69.6	69.6	48	49.0	2	12	90	0.00	29.530 
02:30	69.6	69.6	69.6	48	49.0	3	10	90	0.00	29.516 
02:35	69.4	69.4	69.4	48	48.8	2	5	90	0.00	29.516 
02:40	69.3	69.3	69.3	48	48.8	2	6	45	0.00	29.516 
02:45	69.3	69.3	69.3	47	48.2	2	7	90	0.00	29.511 
02:50	69.3	69.3	69.3	47	48.2	3	8	90	0.00	29.511 
02:55	69.1	69.1	69.1	47	48.0	2	5	112	0.00	29.511 
03:00	68.9	68.9	68.9	47	47.8	3	7	45	0.00	29.504 
03:05	68.9	68.9	68.9	47	47.8	2	9	90	0.00	29.504 
03:10	68.8	68.8	68.8	47	47.7	2	6	90	0.00	29.504 
03:15	68.8	68.8	68.8	47	47.7	2	5	68	0.00	29.496 
03:20	68.9	68.9	68.9	47	47.8	3	7	90	0.00	29.496 
03:25	68.9	68.9	68.9	47	47.8	3	9	112	0.00	29.496 
03:30	68.9	68.9	68.9	47	47.8	3	9	90	0.00	29.487 
03:35	68.8	68.8	68.8	47	47.7	3	7	90	0.00	29.487 
03:40	68.9	68.9	68.9	47	47.8	4	15	68	0.00	29.487 
03:45	68.9	68.9	68.9	47	47.8	3	10	68	0.00	29.483 
03:50	68.8	68.8	68.8	47	47.7	3	9	45	0.00	29.483 
03:55	68.6	68.6	68.6	48	48.1	2	5	338	0.00	29.483 
04:00	68.6	68.6	68.6	48	48.1	2	10	248	0.00	29.480 
04:05	68.6	68.6	68.6	48	48.1	2	11	248	0.00	29.480 
04:10	68.4	68.4	68.4	49	48.5	2	5	270	0.00	29.480 
04:15	68.6	68.6	68.6	50	49.2	2	7	270	0.00	29.477 
04:20	68.4	68.4	68.4	51	49.6	2	7	0	0.00	29.477 
04:25	68.1	68.1	68.1	51	49.3	2	9	248	0.00	29.477 
04:30	68.1	68.1	68.1	51	49.3	2	5	248	0.00	29.466 
04:35	67.9	67.9	67.9	52	49.6	1	5	248	0.00	29.466 
04:40	67.9	67.9	67.9	52	49.6	3	9	248	0.00	29.466 
04:45	68.1	68.1	68.1	52	49.8	2	10	248	0.00	29.456 
04:50	68.1	68.1	68.1	52	49.8	2	9	248	0.00	29.456 
04:55	68.3	68.3	68.3	53	50.5	2	11	248	0.00	29.456 
05:00	68.3	68.3	68.3	53	50.5	2	7	248	0.00	29.441 
05:05	68.1	68.1	68.1	54	50.8	2	10	270	0.00	29.441 
05:10	67.9	67.9	67.9	55	51.1	2	6	248	0.00	29.441 
05:15	67.8	67.8	67.8	56	51.5	3	10	248	0.00	29.423 
05:20	67.6	67.6	67.6	57	51.8	2	6	270	0.00	29.423 
05:25	67.4	67.4	67.4	58	52.1	2	12	270	0.00	29.423 
05:30	67.3	67.3	67.3	58	52.0	2	6	248	0.00	29.428 
05:35	67.3	67.3	67.3	58	52.0	2	6	292	0.00	29.428 
05:40	66.9	66.9	66.9	60	52.6	2	11	248	0.00	29.428 
05:45	66.8	66.8	66.8	61	52.9	3	10	248	0.00	29.424 
05:50	66.6	66.6	66.6	61	52.7	2	8	248	0.00	29.424 
05:55	66.4	66.4	66.4	62	53.0	2	7	248	0.00	29.424 
06:00	66.3	66.3	66.3	63	53.3	3	9	248	0.00	29.432 
06:05	65.8	65.8	65.8	65	53.7	2	7	270	0.00	29.432 
06:10	65.6	65.6	65.6	65	53.5	2	7	270	0.00	29.432 
06:15	65.6	65.6	65.6	65	53.5	2	7	270	0.00	29.440 
06:20	65.6	65.6	65.6	65	53.5	3	15	270	0.00	29.440 
06:25	65.6	65.6	65.6	65	53.5	3	9	248	0.00	29.440 
06:30	65.6	65.6	65.6	65	53.5	3	9	248	0.00	29.457 
06:35	65.5	65.5	65.5	64	53.0	4	14	248	0.00	29.457 
06:40	65.3	65.3	65.3	65	53.2	4	13	248	0.00	29.457 
06:45	65.0	65.0	65.0	66	53.4	5	13	248	0.00	29.478 
06:50	64.8	64.8	64.8	66	53.2	6	16	248	0.00	29.478 
06:55	64.5	64.5	64.5	67	53.3	3	13	270	0.00	29.478 
07:00	64.2	64.2	64.2	68	53.4	4	10	270	0.00	29.486 
07:05	64.0	64.0	64.0	68	53.2	3	10	248	0.00	29.486 
07:10	63.7	63.7	63.7	69	53.3	3	10	248	0.00	29.486 
07:15	63.5	63.5	63.5	69	53.1	3	7	248	0.00	29.499 
07:20	63.4	63.4	63.4	70	53.4	4	11	225	0.00	29.499 
07:25	63.1	63.1	63.1	73	54.3	4	11	248	0.00	29.499 
07:30	62.7	62.7	62.7	74	54.3	3	7	248	0.00	29.507 
07:35	62.4	62.4	62.4	74	54.0	3	11	248	0.00	29.507 
07:40	62.4	62.4	62.4	74	54.0	4	12	248	0.00	29.507 
07:45	62.4	62.4	62.4	75	54.4	5	12	248	0.00	29.507 
07:50	62.3	62.3	62.3	76	54.6	3	8	248	0.00	29.507 
07:55	62.1	62.1	62.1	78	55.2	3	10	248	0.00	29.507 
08:00	61.5	61.5	61.5	81	55.6	5	17	270	0.00	29.519 
08:05	61.0	61.0	61.0	83	55.8	4	13	248	0.00	29.519 
08:10	60.7	60.7	60.7	83	55.5	3	7	248	0.00	29.519 
08:15	60.7	60.7	60.7	84	55.8	2	7	248	0.00	29.520 
08:20	60.7	60.7	60.7	84	55.8	2	6	270	0.00	29.520 
08:25	60.7	60.7	60.7	84	55.8	3	7	248	0.00	29.520 
08:30	60.7	60.7	60.7	84	55.8	3	10	248	0.00	29.520 
08:35	60.7	60.7	60.7	84	55.8	2	9	248	0.00	29.520 
08:40	60.9	60.9	60.9	83	55.7	2	7	270	0.00	29.520 
08:45	61.0	61.0	61.0	83	55.8	3	11	248	0.00	29.522 
08:50	61.2	61.2	61.2	82	55.7	2	5	248	0.00	29.522 
08:55	61.2	61.2	61.2	82	55.7	3	10	248	0.00	29.522 
09:00	61.3	61.3	61.3	81	55.4	3	9	270	0.00	29.524 
09:05	61.5	61.5	61.5	81	55.6	2	9	248	0.00	29.524 
09:10	61.6	61.6	61.6	80	55.4	2	6	248	0.00	29.524 
09:15	61.6	61.6	61.6	79	55.0	3	12	248	0.00	29.526 
09:20	61.6	61.6	61.6	79	55.0	2	9	248	0.00	29.526 
09:25	61.6	61.6	61.6	79	55.0	2	7	248	0.00	29.526 
09:30	61.6	61.6	61.6	78	54.7	3	7	270	0.00	29.527 
09:35	61.5	61.5	61.5	78	54.6	3	8	225	0.00	29.527 
09:40	61.5	61.5	61.5	78	54.6	3	9	248	0.00	29.527 
09:45	61.6	61.6	61.6	78	54.7	2	8	248	0.00	29.535 
09:50	61.6	61.6	61.6	77	54.3	3	8	248	0.00	29.535 
09:55	61.5	61.5	61.5	77	54.2	3	7	248	0.00	29.535 
10:00	61.5	61.5	61.5	77	54.2	2	6	248	0.00	29.538 
10:05	61.3	61.3	61.3	77	54.0	3	7	248	0.00	29.538 
10:10	61.2	61.2	61.2	77	53.9	3	10	248	0.00	29.538 
10:15	61.0	61.0	61.0	78	54.1	2	9	248	0.00	29.546 
10:20	61.0	61.0	61.0	79	54.4	3	7	248	0.00	29.546 
10:25	61.2	61.2	61.2	79	54.6	3	6	248	0.00	29.546 
10:30	61.5	61.5	61.5	78	54.6	2	5	270	0.00	29.546 
10:35	61.5	61.5	61.5	76	53.9	4	9	248	0.00	29.546 
10:40	61.0	61.0	61.0	78	54.1	4	9	270	0.00	29.546 
10:45	60.2	60.2	60.2	79	53.7	4	7	270	0.00	29.555 
10:50	59.8	59.8	59.8	78	52.9	5	10	270	0.00	29.555 
10:55	59.3	59.3	59.3	78	52.4	4	10	270	0.00	29.555 
11:00	58.9	58.9	58.9	77	51.7	4	7	270	0.00	29.572 
11:05	57.2	57.2	57.2	76	49.7	5	9	270	0.00	29.572 
11:10	55.9	55.9	55.9	77	48.8	4	8	270	0.00	29.572 
11:15	55.4	55.4	55.4	77	48.3	4	6	270	0.00	29.592 
11:20	54.7	54.7	54.7	77	47.6	4	9	270	0.00	29.592 
11:25	53.9	53.9	53.9	76	46.5	4	7	270	0.00	29.592 
11:30	53.2	53.2	53.2	75	45.5	4	11	270	0.00	29.610 
11:35	52.5	52.5	52.5	76	45.2	4	7	292	0.00	29.610 
11:40	51.9	51.9	51.9	77	44.9	3	6	270	0.00	29.610 
11:45	51.4	51.4	51.4	77	44.4	3	6	248	0.00	29.618 
11:50	50.8	50.8	50.8	77	43.9	3	9	315	0.00	29.618 
11:55	49.9	48.8	49.9	77	43.0	4	6	270	0.00	29.618 
12:00	49.6	49.6	49.6	78	43.0	3	6	270	0.00	29.632 
12:05	49.1	47.8	49.1	77	42.2	4	10	270	0.00	29.632 
12:10	48.8	48.8	48.8	78	42.2	3	10	270	0.00	29.632 
12:15	48.8	48.8	48.8	77	41.9	3	5	270	0.00	29.634 
12:20	48.0	46.6	48.0	76	40.8	4	8	315	0.00	29.634 
12:25	47.3	45.8	47.3	77	40.5	4	10	315	0.00	29.634 
12:30	47.0	45.4	47.0	78	40.5	4	7	270	0.00	29.652 
12:35	46.8	45.2	46.8	77	40.0	4	5	270	0.00	29.652 
12:40	46.8	46.8	46.8	78	40.3	3	6	248	0.00	29.652 
12:45	46.7	46.7	46.7	78	40.2	3	6	270	0.00	29.657 
12:50	46.2	44.5	46.2	77	39.4	4	7	270	0.00	29.657 
12:55	46.4	46.4	46.4	78	39.9	3	10	292	0.00	29.657 
13:00	46.5	46.5	46.5	76	39.3	3	7	270	0.00	29.662 
13:05	46.8	45.2	46.8	75	39.3	4	7	270	0.00	29.662 
13:10	47.0	45.4	47.0	73	38.8	4	7	270	0.00	29.662 
13:15	46.7	46.7	46.7	73	38.5	3	6	270	0.00	29.663 
13:20	46.5	44.8	46.5	73	38.3	4	8	270	0.00	29.663 
13:25	46.0	44.2	46.0	72	37.5	4	7	270	0.00	29.663 
13:30	45.5	43.7	45.5	73	37.4	4	9	338	0.00	29.674 
13:35	45.2	45.2	45.2	74	37.4	3	12	270	0.00	29.674 
13:40	45.2	45.2	45.2	74	37.4	3	5	248	0.00	29.674 
13:45	44.9	43.0	44.9	74	37.1	4	6	270	0.00	29.685 
13:50	44.8	44.8	44.8	74	37.0	2	4	315	0.00	29.685 
13:55	45.1	45.1	45.1	74	37.3	3	6	270	0.00	29.685 
14:00	44.9	43.0	44.9	73	36.8	4	6	270	0.00	29.692 
14:05	44.9	44.9	44.9	73	36.8	3	7	338	0.00	29.692 
14:10	44.6	44.6	44.6	75	37.2	3	7	270	0.00	29.692 
14:15	44.5	44.5	44.5	75	37.1	3	6	270	0.00	29.697 
14:20	44.1	42.1	44.1	75	36.7	4	11	315	0.00	29.697 
14:25	43.8	41.7	43.8	76	36.7	4	7	292	0.00	29.697 
14:30	43.6	41.5	43.6	77	36.9	4	9	338	0.00	29.707 
14:35	43.6	41.5	43.6	76	36.5	4	8	292	0.00	29.707 
14:40	43.6	43.6	43.6	76	36.5	3	7	270	0.00	29.707 
14:45	43.5	43.5	43.5	76	36.4	3	6	270	0.00	29.711 
14:50	43.5	43.5	43.5	76	36.4	3	6	270	0.00	29.711 
14:55	43.6	43.6	43.6	74	35.9	3	7	292	0.00	29.711 
15:00	43.8	43.8	43.8	74	36.1	3	6	270	0.00	29.708 
15:05	43.9	43.9	43.9	74	36.2	3	6	248	0.00	29.708 
15:10	43.9	43.9	43.9	73	35.8	3	6	270	0.00	29.708 
15:15	43.9	43.9	43.9	73	35.8	3	7	248	0.00	29.705 
15:20	44.2	44.2	44.2	73	36.1	2	7	338	0.00	29.705 
15:25	44.3	44.3	44.3	72	35.9	3	5	315	0.00	29.705 
15:30	44.8	44.8	44.8	72	36.3	1	4	270	0.00	29.698 
15:35	45.1	45.1	45.1	70	35.9	1	3	315	0.00	29.698 
15:40	45.2	45.2	45.2	69	35.6	2	5	248	0.00	29.698 
15:45	45.4	45.4	45.4	70	36.2	2	6	270	0.00	29.696 
15:50	45.4	45.4	45.4	69	35.8	2	6	248	0.00	29.696 
15:55	45.4	45.4	45.4	69	35.8	2	5	270	0.00	29.696 
16:00	45.5	45.5	45.5	69	35.9	1	5	315	0.00	29.697 
16:05	45.8	45.8	45.8	69	36.2	2	4	270	0.00	29.697 
16:10	46.0	46.0	46.0	68	36.0	2	4	270	0.00	29.697 
16:15	46.1	46.1	46.1	67	35.8	2	6	270	0.00	29.697 
16:20	46.1	46.1	46.1	67	35.8	2	5	315	0.00	29.697 
16:25	46.1	46.1	46.1	67	35.8	3	6	315	0.00	29.697 
16:30	46.1	46.1	46.1	66	35.4	2	9	270	0.00	29.698 
16:35	46.1	46.1	46.1	66	35.4	3	7	270	0.00	29.698 
16:40	45.8	45.8	45.8	67	35.5	2	6	248	0.00	29.698 
16:45	46.2	46.2	46.2	67	35.9	2	4	248	0.00	29.695 
16:50	46.1	46.1	46.1	66	35.4	2	5	248	0.00	29.695 
16:55	45.8	45.8	45.8	66	35.1	3	7	270	0.00	29.695 
17:00	45.8	45.8	45.8	66	35.1	2	4	292	0.00	29.706 
17:05	45.4	45.4	45.4	67	35.1	2	4	270	0.00	29.706 
17:10	44.9	44.9	44.9	66	34.2	2	4	292	0.00	29.706 
17:15	44.6	44.6	44.6	67	34.3	1	6	292	0.00	29.715 
17:20	44.5	44.5	44.5	68	34.6	2	7	270	0.00	29.715 
17:25	44.3	44.3	44.3	67	34.0	2	5	248	0.00	29.715 
17:30	43.9	43.9	43.9	67	33.7	3	5	315	0.00	29.714 
17:35	43.8	43.8	43.8	68	33.9	1	8	315	0.00	29.714 
17:40	43.6	43.6	43.6	69	34.1	2	4	248	0.00	29.714 
17:45	43.2	43.2	43.2	69	33.7	2	6	270	0.00	29.716 
17:50	42.8	42.8	42.8	69	33.3	2	6	315	0.00	29.716 
17:55	42.2	42.2	42.2	70	33.1	3	6	292	0.00	29.716 
18:00	42.1	42.1	42.1	72	33.7	1	4	315	0.00	29.717 
18:05	41.9	41.9	41.9	71	33.2	1	5	292	0.00	29.717 
18:10	41.8	41.8	41.8	71	33.1	2	4	292	0.00	29.717 
18:15	41.6	41.6	41.6	72	33.3	2	4	292	0.00	29.720 
18:20	41.3	41.3	41.3	72	33.0	2	4	292	0.00	29.720 
18:25	40.9	40.9	40.9	71	32.2	3	5	292	0.00	29.720 
18:30	40.8	40.8	40.8	72	32.5	2	7	292	0.00	29.730 
18:35	40.6	40.6	40.6	72	32.3	2	5	338	0.00	29.730 
18:40	40.5	40.5	40.5	73	32.5	2	6	292	0.00	29.730 
18:45	40.3	40.3	40.3	73	32.3	2	5	338	0.00	29.730 
18:50	40.2	40.2	40.2	73	32.2	2	7	248	0.00	29.730 
18:55	40.1	40.1	40.1	74	32.5	2	4	315	0.00	29.730 
19:00	39.8	39.8	39.8	74	32.2	3	7	338	0.00	29.740 
19:05	39.6	39.6	39.6	74	32.0	3	6	270	0.00	29.740 
19:10	39.3	39.3	39.3	75	32.0	2	6	292	0.00	29.740 
19:15	39.2	39.2	39.2	76	32.3	2	6	270	0.00	29.744 
19:20	39.1	39.1	39.1	77	32.5	2	4	270	0.00	29.744 
19:25	38.8	38.8	38.8	77	32.2	2	7	315	0.00	29.744 
19:30	38.6	38.6	38.6	78	32.3	3	6	270	0.00	29.755 
19:35	38.5	38.5	38.5	79	32.6	2	6	338	0.00	29.755 
19:40	38.2	38.2	38.2	79	32.3	2	6	315	0.00	29.755 
19:45	38.0	38.0	38.0	81	32.7	2	5	338	0.00	29.752 
19:50	37.8	37.8	37.8	82	32.8	1	3	292	0.00	29.752 
19:55	37.6	37.6	37.6	83	32.9	2	5	248	0.00	29.752 
20:00	37.3	37.3	37.3	84	32.9	3	6	248	0.00	29.771 
20:05	37.2	37.2	37.2	84	32.8	2	6	270	0.00	29.771 
20:10	37.0	37.0	37.0	85	32.9	2	5	270	0.00	29.771 
20:15	36.9	36.9	36.9	85	32.8	1	4	315	0.00	29.789 
20:20	36.6	36.6	36.6	85	32.5	3	6	270	0.00	29.789 
20:25	36.5	36.5	36.5	86	32.7	1	4	270	0.00	29.789 
20:30	36.3	36.3	36.3	87	32.8	1	3	248	0.00	29.790 
20:35	36.2	36.2	36.2	87	32.7	2	3	292	0.01	29.790 
20:40	35.8	35.8	35.8	87	32.3	2	5	248	0.00	29.790 
20:45	35.5	35.5	35.5	88	32.3	2	6	315	0.00	29.803 
20:50	35.2	35.2	35.2	88	32.0	3	7	292	0.00	29.803 
20:55	35.0	35.0	35.0	88	31.8	2	6	292	0.00	29.803 
21:00	34.7	34.7	34.7	88	31.5	2	7	292	0.00	29.795 
21:05	34.6	34.6	34.6	88	31.4	3	7	292	0.00	29.795 
21:10	34.3	34.3	34.3	88	31.1	3	7	270	0.00	29.795 
21:15	34.1	34.1	34.1	88	30.9	3	7	270	0.00	29.791 
21:20	33.8	30.2	33.8	89	30.9	4	9	292	0.00	29.791 
21:25	33.5	29.8	33.5	89	30.6	4	10	292	0.00	29.791 
21:30	33.1	33.1	33.1	89	30.2	3	6	292	0.00	29.794 
21:35	32.9	32.9	32.9	89	30.0	3	8	292	0.00	29.794 
21:40	32.7	32.7	32.7	90	30.1	3	5	315	0.00	29.794 
21:45	32.5	32.5	32.5	90	29.9	3	7	270	0.00	29.813 
21:50	32.4	32.4	32.4	91	30.1	2	5	315	0.00	29.813 
21:55	32.4	32.4	32.4	91	30.1	2	6	338	0.00	29.813 
22:00	32.2	32.2	32.2	91	29.9	2	5	270	0.00	29.823 
22:05	32.2	32.2	32.2	91	29.9	2	6	315	0.00	29.823 
22:10	31.9	31.9	31.9	91	29.6	3	7	292	0.00	29.823 
22:15	31.9	31.9	31.9	92	29.8	2	6	292	0.00	29.820 
22:20	31.8	31.8	31.8	92	29.7	3	6	315	0.00	29.820 
22:25	31.8	31.8	31.8	92	29.7	1	3	338	0.00	29.820 
22:30	31.6	31.6	31.6	92	29.5	2	5	315	0.00	29.826 
22:35	31.5	31.5	31.5	92	29.4	2	5	315	0.00	29.826 
22:40	31.5	31.5	31.5	92	29.4	3	6	338	0.00	29.826 
22:45	31.5	31.5	31.5	92	29.4	1	5	270	0.00	29.826 
22:50	31.3	31.3	31.3	92	29.3	2	5	292	0.00	29.826 
22:55	31.3	31.3	31.3	92	29.3	2	7	315	0.00	29.826 
23:00	31.2	31.2	31.2	92	29.2	2	4	338	0.00	29.826 
23:05	31.2	31.2	31.2	92	29.2	3	10	338	0.00	29.826 
23:10	31.0	31.0	31.0	92	29.0	3	6	338	0.00	29.826 
23:15	30.9	30.9	30.9	92	28.9	2	9	292	0.00	29.847 
23:20	30.9	30.9	30.9	92	28.9	2	6	270	0.00	29.847 
23:25	30.7	30.7	30.7	92	28.7	3	10	315	0.00	29.847 
23:30	30.7	30.7	30.7	92	28.7	2	6	338	0.00	29.839 
23:35	30.6	30.6	30.6	92	28.6	2	4	338	0.00	29.839 
23:40	30.6	30.6	30.6	92	28.6	2	4	292	0.00	29.839 
23:45	30.3	30.3	30.3	92	28.3	3	7	0	0.00	29.837 
23:50	30.1	30.1	30.1	92	28.1	3	9	338	0.00	29.837 
23:55	30.0	30.0	30.0	93	28.2	3	7	292	0.00	29.837 

CoCoRaHS
IN-AL-39
A2 Web Hosting
Creative Commons License
GoDaddy
search engine by freefind advanced

loaded 2018-11-20 14:32:17 • last modified 2010-11-18 10:43:29
Privacy PolicyDisclaimer
• wx.awcolley.com is powered by PmWiki v.2002016 •
• all content (unless otherwise noted) © 2018 A W Colley